sensor_id;sensor_type;location;lat;lon;timestamp;pressure;altitude;pressure_sealevel;temperature;humidity
76378;BME280;65200;49.500;8.654;2023-11-21T00:02:24;99798.28;;;13.23;74.26
76378;BME280;65200;49.500;8.654;2023-11-21T00:04:52;99800.28;;;13.27;75.12
76378;BME280;65200;49.500;8.654;2023-11-21T00:07:20;99801.97;;;13.64;73.14
76378;BME280;65200;49.500;8.654;2023-11-21T00:09:46;99803.19;;;13.68;73.55
76378;BME280;65200;49.500;8.654;2023-11-21T00:12:13;99807.19;;;13.23;73.66
76378;BME280;65200;49.500;8.654;2023-11-21T00:14:39;99799.97;;;13.17;74.38
76378;BME280;65200;49.500;8.654;2023-11-21T00:17:06;99799.56;;;13.38;73.95
76378;BME280;65200;49.500;8.654;2023-11-21T00:19:32;99796.75;;;13.33;75.02
76378;BME280;65200;49.500;8.654;2023-11-21T00:22:00;99804.75;;;13.15;75.79
76378;BME280;65200;49.500;8.654;2023-11-21T00:24:27;99801.72;;;13.54;74.34
76378;BME280;65200;49.500;8.654;2023-11-21T00:26:54;99803.88;;;13.21;74.37
76378;BME280;65200;49.500;8.654;2023-11-21T00:29:20;99804.75;;;13.15;75.28
76378;BME280;65200;49.500;8.654;2023-11-21T00:31:47;99805.97;;;13.19;75.52
76378;BME280;65200;49.500;8.654;2023-11-21T00:34:13;99796.38;;;13.48;73.50
76378;BME280;65200;49.500;8.654;2023-11-21T00:36:40;99793.41;;;13.56;72.70
76378;BME280;65200;49.500;8.654;2023-11-21T00:39:07;99798.97;;;13.36;75.45
76378;BME280;65200;49.500;8.654;2023-11-21T00:41:35;99786.66;;;13.65;72.34
76378;BME280;65200;49.500;8.654;2023-11-21T00:44:01;99787.66;;;13.28;75.38
76378;BME280;65200;49.500;8.654;2023-11-21T00:46:28;99788.44;;;13.35;74.01
76378;BME280;65200;49.500;8.654;2023-11-21T00:48:54;99791.22;;;13.46;74.90
76378;BME280;65200;49.500;8.654;2023-11-21T00:51:22;99794.97;;;13.21;74.35
76378;BME280;65200;49.500;8.654;2023-11-21T00:53:48;99791.00;;;12.99;75.52
76378;BME280;65200;49.500;8.654;2023-11-21T00:56:14;99782.91;;;13.30;74.78
76378;BME280;65200;49.500;8.654;2023-11-21T00:58:42;99786.16;;;13.32;73.90
76378;BME280;65200;49.500;8.654;2023-11-21T01:01:09;99790.63;;;13.44;73.52
76378;BME280;65200;49.500;8.654;2023-11-21T01:03:35;99789.75;;;13.68;72.96
76378;BME280;65200;49.500;8.654;2023-11-21T01:06:02;99790.50;;;13.75;73.40
76378;BME280;65200;49.500;8.654;2023-11-21T01:08:27;99791.44;;;13.81;72.68
76378;BME280;65200;49.500;8.654;2023-11-21T01:10:54;99793.91;;;13.64;74.28
76378;BME280;65200;49.500;8.654;2023-11-21T01:13:21;99794.03;;;13.51;72.78
76378;BME280;65200;49.500;8.654;2023-11-21T01:15:49;99795.16;;;13.44;73.65
76378;BME280;65200;49.500;8.654;2023-11-21T01:18:15;99803.50;;;13.78;72.42
76378;BME280;65200;49.500;8.654;2023-11-21T01:20:42;99801.13;;;13.70;74.17
76378;BME280;65200;49.500;8.654;2023-11-21T01:23:09;99800.81;;;13.78;73.65
76378;BME280;65200;49.500;8.654;2023-11-21T01:25:35;99802.34;;;13.50;73.93
76378;BME280;65200;49.500;8.654;2023-11-21T01:28:02;99803.28;;;13.80;73.43
76378;BME280;65200;49.500;8.654;2023-11-21T01:30:28;99807.47;;;13.76;72.83
76378;BME280;65200;49.500;8.654;2023-11-21T01:32:56;99807.44;;;13.40;74.40
76378;BME280;65200;49.500;8.654;2023-11-21T01:35:22;99799.56;;;13.38;75.05
76378;BME280;65200;49.500;8.654;2023-11-21T01:37:49;99795.88;;;13.75;73.69
76378;BME280;65200;49.500;8.654;2023-11-21T01:40:15;99801.91;;;13.89;72.34
76378;BME280;65200;49.500;8.654;2023-11-21T01:42:42;99810.13;;;13.58;73.95
76378;BME280;65200;49.500;8.654;2023-11-21T01:45:09;99800.34;;;13.45;74.77
76378;BME280;65200;49.500;8.654;2023-11-21T01:47:38;99808.28;;;13.76;73.41
76378;BME280;65200;49.500;8.654;2023-11-21T01:50:08;99804.38;;;13.72;74.17
76378;BME280;65200;49.500;8.654;2023-11-21T01:52:38;99805.25;;;13.48;74.94
76378;BME280;65200;49.500;8.654;2023-11-21T01:55:07;99796.91;;;13.74;73.00
76378;BME280;65200;49.500;8.654;2023-11-21T01:57:35;99802.72;;;13.53;73.29
76378;BME280;65200;49.500;8.654;2023-11-21T02:00:03;99799.00;;;13.91;72.91
76378;BME280;65200;49.500;8.654;2023-11-21T02:02:40;99803.81;;;13.89;73.77
76378;BME280;65200;49.500;8.654;2023-11-21T02:05:09;99800.19;;;13.58;73.82
76378;BME280;65200;49.500;8.654;2023-11-21T02:07:37;99798.69;;;13.99;72.33
76378;BME280;65200;49.500;8.654;2023-11-21T02:10:04;99797.00;;;13.86;73.53
76378;BME280;65200;49.500;8.654;2023-11-21T02:12:31;99785.31;;;13.56;74.06
76378;BME280;65200;49.500;8.654;2023-11-21T02:14:57;99794.66;;;13.90;72.35
76378;BME280;65200;49.500;8.654;2023-11-21T02:17:24;99799.91;;;13.85;72.93
76378;BME280;65200;49.500;8.654;2023-11-21T02:19:52;99806.53;;;13.46;73.64
76378;BME280;65200;49.500;8.654;2023-11-21T02:22:20;99804.25;;;13.67;72.76
76378;BME280;65200;49.500;8.654;2023-11-21T02:24:49;99805.28;;;13.85;73.16
76378;BME280;65200;49.500;8.654;2023-11-21T02:27:16;99808.44;;;14.00;73.39
76378;BME280;65200;49.500;8.654;2023-11-21T02:29:47;99806.91;;;14.22;71.80
76378;BME280;65200;49.500;8.654;2023-11-21T02:32:13;99814.38;;;14.20;72.27
76378;BME280;65200;49.500;8.654;2023-11-21T02:34:42;99810.22;;;14.06;72.24
76378;BME280;65200;49.500;8.654;2023-11-21T02:37:08;99805.59;;;13.95;72.82
76378;BME280;65200;49.500;8.654;2023-11-21T02:39:35;99806.94;;;14.04;nan
76378;BME280;65200;49.500;8.654;2023-11-21T02:42:03;99803.19;;;14.05;73.21
76378;BME280;65200;49.500;8.654;2023-11-21T02:44:29;99802.69;;;13.96;73.38
76378;BME280;65200;49.500;8.654;2023-11-21T02:46:56;99794.22;;;13.74;73.56
76378;BME280;65200;49.500;8.654;2023-11-21T02:49:23;99802.91;;;13.76;73.48
76378;BME280;65200;49.500;8.654;2023-11-21T02:51:53;99792.78;;;14.08;72.63
76378;BME280;65200;49.500;8.654;2023-11-21T02:54:20;99804.53;;;14.14;72.69
76378;BME280;65200;49.500;8.654;2023-11-21T02:56:47;99793.00;;;14.25;72.25
76378;BME280;65200;49.500;8.654;2023-11-21T02:59:16;99791.19;;;14.19;72.51
76378;BME280;65200;49.500;8.654;2023-11-21T03:01:42;99796.44;;;13.96;73.06
76378;BME280;65200;49.500;8.654;2023-11-21T03:04:09;99796.38;;;14.02;73.12
76378;BME280;65200;49.500;8.654;2023-11-21T03:06:36;99801.09;;;14.07;73.21
76378;BME280;65200;49.500;8.654;2023-11-21T03:09:02;99800.44;;;14.11;71.83
76378;BME280;65200;49.500;8.654;2023-11-21T03:11:29;99796.38;;;14.02;72.55
76378;BME280;65200;49.500;8.654;2023-11-21T03:13:55;99798.69;;;14.35;72.22
76378;BME280;65200;49.500;8.654;2023-11-21T03:16:23;99797.66;;;14.36;72.17
76378;BME280;65200;49.500;8.654;2023-11-21T03:18:50;99797.66;;;14.00;72.63
76378;BME280;65200;49.500;8.654;2023-11-21T03:21:17;99804.09;;;13.99;73.38
76378;BME280;65200;49.500;8.654;2023-11-21T03:23:44;99803.19;;;14.05;72.89
76378;BME280;65200;49.500;8.654;2023-11-21T03:26:11;99803.19;;;13.50;75.04
76378;BME280;65200;49.500;8.654;2023-11-21T03:28:38;99803.06;;;13.82;73.48
76378;BME280;65200;49.500;8.654;2023-11-21T03:31:05;99802.91;;;13.95;73.16
76378;BME280;65200;49.500;8.654;2023-11-21T03:33:33;99802.81;;;14.01;72.24
76378;BME280;65200;49.500;8.654;2023-11-21T03:36:00;99815.59;;;14.24;72.60
76378;BME280;65200;49.500;8.654;2023-11-21T03:38:26;99804.34;;;13.61;73.97
76378;BME280;65200;49.500;8.654;2023-11-21T03:40:53;99820.25;;;14.17;72.87
76378;BME280;65200;49.500;8.654;2023-11-21T03:43:19;99821.53;;;14.14;73.23
76378;BME280;65200;49.500;8.654;2023-11-21T03:45:46;99812.53;;;14.38;72.26
76378;BME280;65200;49.500;8.654;2023-11-21T03:48:13;99815.28;;;14.50;71.60
76378;BME280;65200;49.500;8.654;2023-11-21T03:50:41;99814.44;;;14.49;71.41
76378;BME280;65200;49.500;8.654;2023-11-21T03:53:07;99816.91;;;14.51;71.93
76378;BME280;65200;49.500;8.654;2023-11-21T03:55:34;99812.13;;;14.53;71.26
76378;BME280;65200;49.500;8.654;2023-11-21T03:58:00;99811.19;;;14.47;71.55
76378;BME280;65200;49.500;8.654;2023-11-21T04:00:27;99813.13;;;14.22;72.61
76378;BME280;65200;49.500;8.654;2023-11-21T04:02:54;99816.97;;;14.15;72.28
76378;BME280;65200;49.500;8.654;2023-11-21T04:05:21;99815.63;;;14.06;73.33
76378;BME280;65200;49.500;8.654;2023-11-21T04:07:49;99818.63;;;13.98;73.30
76378;BME280;65200;49.500;8.654;2023-11-21T04:10:17;99822.78;;;14.30;72.16
76378;BME280;65200;49.500;8.654;2023-11-21T04:12:43;99824.22;;;14.32;71.80
76378;BME280;65200;49.500;8.654;2023-11-21T04:15:11;99827.91;;;14.02;72.68
76378;BME280;65200;49.500;8.654;2023-11-21T04:17:38;99820.56;;;14.27;71.70
76378;BME280;65200;49.500;8.654;2023-11-21T04:20:06;99830.00;;;14.00;72.91
76378;BME280;65200;49.500;8.654;2023-11-21T04:22:36;99833.13;;;14.33;73.04
76378;BME280;65200;49.500;8.654;2023-11-21T04:25:08;99841.72;;;14.41;72.15
76378;BME280;65200;49.500;8.654;2023-11-21T04:27:34;99842.19;;;14.38;72.56
76378;BME280;65200;49.500;8.654;2023-11-21T04:30:00;99836.66;;;14.33;71.75
76378;BME280;65200;49.500;8.654;2023-11-21T04:32:27;99833.66;;;13.87;74.43
76378;BME280;65200;49.500;8.654;2023-11-21T04:34:53;99840.75;;;13.82;73.22
76378;BME280;65200;49.500;8.654;2023-11-21T04:37:20;99841.94;;;13.86;74.13
76378;BME280;65200;49.500;8.654;2023-11-21T04:39:46;99835.47;;;13.93;73.19
76378;BME280;65200;49.500;8.654;2023-11-21T04:42:14;99845.81;;;13.53;75.09
76378;BME280;65200;49.500;8.654;2023-11-21T04:44:40;99848.69;;;13.95;74.24
76378;BME280;65200;49.500;8.654;2023-11-21T04:47:07;99841.59;;;14.36;71.87
76378;BME280;65200;49.500;8.654;2023-11-21T04:49:34;99853.19;;;14.37;72.59
76378;BME280;65200;49.500;8.654;2023-11-21T04:52:00;99857.09;;;14.41;71.68
76378;BME280;65200;49.500;8.654;2023-11-21T04:54:27;99852.56;;;13.99;73.22
76378;BME280;65200;49.500;8.654;2023-11-21T04:56:53;99861.50;;;14.35;72.01
76378;BME280;65200;49.500;8.654;2023-11-21T04:59:21;99861.97;;;14.32;71.84
76378;BME280;65200;49.500;8.654;2023-11-21T05:01:49;99865.69;;;14.13;72.83
76378;BME280;65200;49.500;8.654;2023-11-21T05:04:16;99867.44;;;14.26;71.78
76378;BME280;65200;49.500;8.654;2023-11-21T05:06:42;99874.47;;;14.27;72.16
76378;BME280;65200;49.500;8.654;2023-11-21T05:09:09;99870.84;;;14.51;72.07
76378;BME280;65200;49.500;8.654;2023-11-21T05:11:37;99871.31;;;14.48;71.67
76378;BME280;65200;49.500;8.654;2023-11-21T05:14:04;99873.13;;;14.65;70.95
76378;BME280;65200;49.500;8.654;2023-11-21T05:16:32;99866.25;;;14.69;71.48
76378;BME280;65200;49.500;8.654;2023-11-21T05:18:59;99862.19;;;14.49;71.58
76378;BME280;65200;49.500;8.654;2023-11-21T05:21:26;99875.53;;;14.26;72.49
76378;BME280;65200;49.500;8.654;2023-11-21T05:23:52;99883.59;;;14.44;71.98
76378;BME280;65200;49.500;8.654;2023-11-21T05:26:19;99886.31;;;14.44;71.86
76378;BME280;65200;49.500;8.654;2023-11-21T05:28:45;99882.66;;;14.68;71.20
76378;BME280;65200;49.500;8.654;2023-11-21T05:31:13;99890.00;;;14.61;70.90
76378;BME280;65200;49.500;8.654;2023-11-21T05:33:41;99889.41;;;14.59;70.85
76378;BME280;65200;49.500;8.654;2023-11-21T05:36:07;99889.72;;;14.33;72.50
76378;BME280;65200;49.500;8.654;2023-11-21T05:38:35;99898.09;;;14.61;71.63
76378;BME280;65200;49.500;8.654;2023-11-21T05:41:01;99898.00;;;14.67;71.26
76378;BME280;65200;49.500;8.654;2023-11-21T05:43:28;99906.34;;;14.48;72.03
76378;BME280;65200;49.500;8.654;2023-11-21T05:45:55;99911.38;;;14.26;72.30
76378;BME280;65200;49.500;8.654;2023-11-21T05:48:22;99913.56;;;14.54;71.84
76378;BME280;65200;49.500;8.654;2023-11-21T05:50:52;99906.19;;;14.61;71.46
76378;BME280;65200;49.500;8.654;2023-11-21T05:53:19;99913.09;;;14.57;71.18
76378;BME280;65200;49.500;8.654;2023-11-21T05:55:45;99921.34;;;14.62;70.86
76378;BME280;65200;49.500;8.654;2023-11-21T05:58:11;99918.25;;;14.76;70.43
76378;BME280;65200;49.500;8.654;2023-11-21T06:00:39;99935.47;;;14.57;71.08
76378;BME280;65200;49.500;8.654;2023-11-21T06:03:05;99923.13;;;14.50;71.52
76378;BME280;65200;49.500;8.654;2023-11-21T06:05:32;99922.50;;;14.66;71.13
76378;BME280;65200;49.500;8.654;2023-11-21T06:08:00;99933.09;;;14.49;71.71
76378;BME280;65200;49.500;8.654;2023-11-21T06:10:27;99930.97;;;14.69;70.36
76378;BME280;65200;49.500;8.654;2023-11-21T06:12:53;99937.38;;;14.39;71.65
76378;BME280;65200;49.500;8.654;2023-11-21T06:15:20;99934.53;;;14.34;71.90
76378;BME280;65200;49.500;8.654;2023-11-21T06:17:48;99943.00;;;14.55;72.14
76378;BME280;65200;49.500;8.654;2023-11-21T06:20:18;99935.78;;;14.67;71.02
76378;BME280;65200;49.500;8.654;2023-11-21T06:22:46;99942.13;;;14.91;70.06
76378;BME280;65200;49.500;8.654;2023-11-21T06:25:14;99945.63;;;14.62;71.02
76378;BME280;65200;49.500;8.654;2023-11-21T06:27:42;99947.41;;;14.50;71.96
76378;BME280;65200;49.500;8.654;2023-11-21T06:30:10;99948.22;;;14.68;70.84
76378;BME280;65200;49.500;8.654;2023-11-21T06:32:38;99955.50;;;14.68;71.37
76378;BME280;65200;49.500;8.654;2023-11-21T06:35:06;99955.00;;;14.89;70.42
76378;BME280;65200;49.500;8.654;2023-11-21T06:37:33;99959.88;;;14.80;70.40
76378;BME280;65200;49.500;8.654;2023-11-21T06:40:00;99966.00;;;15.05;70.06
76378;BME280;65200;49.500;8.654;2023-11-21T06:42:30;99961.94;;;14.96;69.64
76378;BME280;65200;49.500;8.654;2023-11-21T06:44:57;99968.56;;;15.00;70.14
76378;BME280;65200;49.500;8.654;2023-11-21T06:47:24;99970.31;;;14.77;70.17
76378;BME280;65200;49.500;8.654;2023-11-21T06:49:51;99974.59;;;14.84;70.64
76378;BME280;65200;49.500;8.654;2023-11-21T06:52:18;99983.50;;;14.67;71.27
76378;BME280;65200;49.500;8.654;2023-11-21T06:54:44;99978.06;;;14.85;70.38
76378;BME280;65200;49.500;8.654;2023-11-21T06:57:12;99979.31;;;14.71;71.23
76378;BME280;65200;49.500;8.654;2023-11-21T06:59:40;99988.38;;;14.76;70.62
76378;BME280;65200;49.500;8.654;2023-11-21T07:02:07;99985.31;;;14.73;70.57
76378;BME280;65200;49.500;8.654;2023-11-21T07:04:34;99995.50;;;14.53;71.57
76378;BME280;65200;49.500;8.654;2023-11-21T07:07:01;99995.94;;;14.68;70.06
76378;BME280;65200;49.500;8.654;2023-11-21T07:09:28;99994.56;;;14.77;71.17
76378;BME280;65200;49.500;8.654;2023-11-21T07:11:57;100002.97;;;14.69;71.20
76378;BME280;65200;49.500;8.654;2023-11-21T07:14:24;100005.75;;;14.62;71.21
76378;BME280;65200;49.500;8.654;2023-11-21T07:16:51;100017.66;;;14.55;71.30
76378;BME280;65200;49.500;8.654;2023-11-21T07:19:18;100023.31;;;14.04;73.22
76378;BME280;65200;49.500;8.654;2023-11-21T07:21:46;100026.13;;;14.16;73.05
76378;BME280;65200;49.500;8.654;2023-11-21T07:24:16;100033.53;;;13.96;72.91
76378;BME280;65200;49.500;8.654;2023-11-21T07:26:42;100037.06;;;13.96;73.86
76378;BME280;65200;49.500;8.654;2023-11-21T07:29:09;100048.13;;;13.88;73.40
76378;BME280;65200;49.500;8.654;2023-11-21T07:31:37;100045.50;;;14.06;72.92
76378;BME280;65200;49.500;8.654;2023-11-21T07:34:04;100040.66;;;13.90;73.86
76378;BME280;65200;49.500;8.654;2023-11-21T07:36:31;100043.81;;;14.05;73.47
76378;BME280;65200;49.500;8.654;2023-11-21T07:38:57;100039.94;;;14.50;72.18
76378;BME280;65200;49.500;8.654;2023-11-21T07:41:24;100048.97;;;14.13;72.70
76378;BME280;65200;49.500;8.654;2023-11-21T07:43:50;100053.97;;;14.10;73.70
76378;BME280;65200;49.500;8.654;2023-11-21T07:46:17;100045.81;;;14.16;72.99
76378;BME280;65200;49.500;8.654;2023-11-21T07:48:44;100060.09;;;14.17;73.71
76378;BME280;65200;49.500;8.654;2023-11-21T07:51:12;100067.38;;;14.16;74.08
76378;BME280;65200;49.500;8.654;2023-11-21T07:53:39;100065.56;;;14.35;73.19
76378;BME280;65200;49.500;8.654;2023-11-21T07:56:07;100058.63;;;14.21;72.85
76378;BME280;65200;49.500;8.654;2023-11-21T07:58:34;100065.66;;;13.97;73.84
76378;BME280;65200;49.500;8.654;2023-11-21T08:01:01;100071.94;;;14.16;73.74
76378;BME280;65200;49.500;8.654;2023-11-21T08:03:28;100067.25;;;14.36;73.82
76378;BME280;65200;49.500;8.654;2023-11-21T08:05:55;100070.22;;;14.28;73.71
76378;BME280;65200;49.500;8.654;2023-11-21T08:08:24;100071.84;;;14.29;73.29
76378;BME280;65200;49.500;8.654;2023-11-21T08:10:50;100062.19;;;14.39;74.01
76378;BME280;65200;49.500;8.654;2023-11-21T08:13:21;100070.44;;;14.20;73.97
76378;BME280;65200;49.500;8.654;2023-11-21T08:15:48;100066.91;;;14.26;73.81
76378;BME280;65200;49.500;8.654;2023-11-21T08:18:14;100075.75;;;14.33;74.08
76378;BME280;65200;49.500;8.654;2023-11-21T08:20:42;100072.84;;;14.34;73.67
76378;BME280;65200;49.500;8.654;2023-11-21T08:23:09;100083.34;;;14.18;74.27
76378;BME280;65200;49.500;8.654;2023-11-21T08:25:36;100080.78;;;14.29;74.51
76378;BME280;65200;49.500;8.654;2023-11-21T08:28:03;100081.81;;;14.28;74.63
76378;BME280;65200;49.500;8.654;2023-11-21T08:30:30;100084.28;;;14.30;73.92
76378;BME280;65200;49.500;8.654;2023-11-21T08:32:57;100088.06;;;14.22;74.33
76378;BME280;65200;49.500;8.654;2023-11-21T08:35:23;100085.84;;;14.13;75.07
76378;BME280;65200;49.500;8.654;2023-11-21T08:37:51;100092.88;;;14.14;74.75
76378;BME280;65200;49.500;8.654;2023-11-21T08:40:17;100100.53;;;14.17;73.92
76378;BME280;65200;49.500;8.654;2023-11-21T08:42:47;100104.00;;;14.24;74.28
76378;BME280;65200;49.500;8.654;2023-11-21T08:45:14;100103.44;;;14.15;74.25
76378;BME280;65200;49.500;8.654;2023-11-21T08:47:40;100109.53;;;14.04;74.90
76378;BME280;65200;49.500;8.654;2023-11-21T08:50:09;100112.19;;;13.79;75.23
76378;BME280;65200;49.500;8.654;2023-11-21T08:52:37;100115.56;;;14.06;75.63
76378;BME280;65200;49.500;8.654;2023-11-21T08:55:04;100118.13;;;13.95;74.80
76378;BME280;65200;49.500;8.654;2023-11-21T08:57:33;100118.06;;;14.01;75.11
76378;BME280;65200;49.500;8.654;2023-11-21T09:00:01;100124.03;;;13.78;74.84
76378;BME280;65200;49.500;8.654;2023-11-21T09:02:27;100131.94;;;13.73;75.50
76378;BME280;65200;49.500;8.654;2023-11-21T09:04:54;100127.44;;;13.61;74.63
76378;BME280;65200;49.500;8.654;2023-11-21T09:07:20;100130.09;;;13.67;75.06
76378;BME280;65200;49.500;8.654;2023-11-21T09:09:47;100131.88;;;13.80;75.30
76378;BME280;65200;49.500;8.654;2023-11-21T09:12:14;100142.31;;;14.01;74.67
76378;BME280;65200;49.500;8.654;2023-11-21T09:14:42;100138.34;;;14.04;74.78
76378;BME280;65200;49.500;8.654;2023-11-21T09:17:10;100143.53;;;13.74;74.72
76378;BME280;65200;49.500;8.654;2023-11-21T09:19:37;100141.53;;;13.56;74.78
76378;BME280;65200;49.500;8.654;2023-11-21T09:22:03;100153.94;;;13.64;75.41
76378;BME280;65200;49.500;8.654;2023-11-21T09:24:30;100156.00;;;13.68;74.63
76378;BME280;65200;49.500;8.654;2023-11-21T09:26:56;100153.38;;;13.93;75.25
76378;BME280;65200;49.500;8.654;2023-11-21T09:29:23;100155.09;;;14.12;74.76
76378;BME280;65200;49.500;8.654;2023-11-21T09:31:49;100165.66;;;14.14;74.26
76378;BME280;65200;49.500;8.654;2023-11-21T09:34:17;100172.75;;;14.08;73.82
76378;BME280;65200;49.500;8.654;2023-11-21T09:36:44;100173.06;;;14.18;74.34
76378;BME280;65200;49.500;8.654;2023-11-21T09:39:11;100171.56;;;13.98;74.86
76378;BME280;65200;49.500;8.654;2023-11-21T09:41:43;100181.50;;;13.97;75.04
76378;BME280;65200;49.500;8.654;2023-11-21T09:44:13;100176.31;;;13.58;75.93
76378;BME280;65200;49.500;8.654;2023-11-21T09:46:41;100181.81;;;13.82;75.75
76378;BME280;65200;49.500;8.654;2023-11-21T09:49:09;100187.94;;;13.96;74.12
76378;BME280;65200;49.500;8.654;2023-11-21T09:51:39;100186.06;;;14.03;73.51
76378;BME280;65200;49.500;8.654;2023-11-21T09:54:10;100189.25;;;14.18;73.31
76378;BME280;65200;49.500;8.654;2023-11-21T09:56:37;100191.53;;;14.21;73.66
76378;BME280;65200;49.500;8.654;2023-11-21T09:59:05;100192.47;;;14.02;72.96
76378;BME280;65200;49.500;8.654;2023-11-21T10:01:36;100199.09;;;14.06;73.96
76378;BME280;65200;49.500;8.654;2023-11-21T10:04:03;100191.94;;;14.25;74.04
76378;BME280;65200;49.500;8.654;2023-11-21T10:06:30;100201.25;;;14.22;73.72
76378;BME280;65200;49.500;8.654;2023-11-21T10:08:59;100200.81;;;14.32;73.96
76378;BME280;65200;49.500;8.654;2023-11-21T10:11:27;100203.13;;;14.22;74.21
76378;BME280;65200;49.500;8.654;2023-11-21T10:13:54;100204.78;;;14.29;72.80
76378;BME280;65200;49.500;8.654;2023-11-21T10:16:23;100207.41;;;14.05;74.58
76378;BME280;65200;49.500;8.654;2023-11-21T10:18:52;100203.34;;;14.20;73.39
76378;BME280;65200;49.500;8.654;2023-11-21T10:21:20;100214.13;;;14.27;73.58
76378;BME280;65200;49.500;8.654;2023-11-21T10:23:47;100200.13;;;14.05;73.88
76378;BME280;65200;49.500;8.654;2023-11-21T10:26:15;100201.47;;;14.27;73.73
76378;BME280;65200;49.500;8.654;2023-11-21T10:28:55;100208.00;;;14.38;73.71
76378;BME280;65200;49.500;8.654;2023-11-21T10:31:22;100207.84;;;14.33;74.46
76378;BME280;65200;49.500;8.654;2023-11-21T10:33:49;100201.13;;;14.11;74.01
76378;BME280;65200;49.500;8.654;2023-11-21T10:36:25;100212.03;;;14.22;74.09
76378;BME280;65200;49.500;8.654;2023-11-21T10:38:52;100208.28;;;13.92;73.93
76378;BME280;65200;49.500;8.654;2023-11-21T10:41:21;100211.97;;;13.98;74.71
76378;BME280;65200;49.500;8.654;2023-11-21T10:43:47;100214.41;;;14.06;73.72
76378;BME280;65200;49.500;8.654;2023-11-21T10:46:14;100212.19;;;13.96;75.25
76378;BME280;65200;49.500;8.654;2023-11-21T10:48:41;100215.94;;;13.95;74.66
76378;BME280;65200;49.500;8.654;2023-11-21T10:51:08;100222.91;;;14.09;73.70
76378;BME280;65200;49.500;8.654;2023-11-21T10:53:38;100228.22;;;13.85;75.19
76378;BME280;65200;49.500;8.654;2023-11-21T10:56:08;100235.88;;;13.88;74.91
76378;BME280;65200;49.500;8.654;2023-11-21T10:58:37;100237.31;;;13.90;75.21
76378;BME280;65200;49.500;8.654;2023-11-21T11:01:06;100226.22;;;13.67;75.39
76378;BME280;65200;49.500;8.654;2023-11-21T11:03:34;100229.63;;;13.43;76.26
76378;BME280;65200;49.500;8.654;2023-11-21T11:06:03;100234.56;;;13.52;76.51
76378;BME280;65200;49.500;8.654;2023-11-21T11:08:34;100239.59;;;13.29;76.88
76378;BME280;65200;49.500;8.654;2023-11-21T11:11:02;100237.66;;;13.62;77.26
76378;BME280;65200;49.500;8.654;2023-11-21T11:13:28;100233.56;;;13.40;76.45
76378;BME280;65200;49.500;8.654;2023-11-21T11:15:58;100239.94;;;13.52;77.26
76378;BME280;65200;49.500;8.654;2023-11-21T11:18:26;100235.59;;;13.51;76.59
76378;BME280;65200;49.500;8.654;2023-11-21T11:20:54;100231.75;;;13.85;76.13
76378;BME280;65200;49.500;8.654;2023-11-21T11:23:35;100229.47;;;13.82;75.52
76378;BME280;65200;49.500;8.654;2023-11-21T11:26:13;100236.16;;;14.11;76.08
76378;BME280;65200;49.500;8.654;2023-11-21T11:28:47;100237.47;;;14.02;74.95
76378;BME280;65200;49.500;8.654;2023-11-21T11:31:27;100242.22;;;14.44;75.12
76378;BME280;65200;49.500;8.654;2023-11-21T11:33:59;100234.00;;;14.88;73.21
76378;BME280;65200;49.500;8.654;2023-11-21T11:36:29;100241.59;;;14.97;72.58
76378;BME280;65200;49.500;8.654;2023-11-21T11:38:57;100241.75;;;15.21;72.49
76378;BME280;65200;49.500;8.654;2023-11-21T11:41:25;100240.72;;;15.22;72.27
76378;BME280;65200;49.500;8.654;2023-11-21T11:43:52;100242.75;;;15.26;72.16
76378;BME280;65200;49.500;8.654;2023-11-21T11:46:20;100247.38;;;15.19;72.74
76378;BME280;65200;49.500;8.654;2023-11-21T11:48:48;100240.91;;;15.02;71.62
76378;BME280;65200;49.500;8.654;2023-11-21T11:51:15;100244.00;;;15.05;72.61
76378;BME280;65200;49.500;8.654;2023-11-21T11:53:46;100242.13;;;14.81;73.33
76378;BME280;65200;49.500;8.654;2023-11-21T11:56:22;100245.53;;;14.95;72.89
76378;BME280;65200;49.500;8.654;2023-11-21T11:58:51;100243.06;;;14.69;72.63
76378;BME280;65200;49.500;8.654;2023-11-21T12:01:18;100254.56;;;14.58;72.92
76378;BME280;65200;49.500;8.654;2023-11-21T12:04:23;100249.25;;;14.45;74.20
76378;BME280;65200;49.500;8.654;2023-11-21T12:06:56;100260.50;;;14.66;74.10
76378;BME280;65200;49.500;8.654;2023-11-21T12:09:24;100255.75;;;14.68;72.35
76378;BME280;65200;49.500;8.654;2023-11-21T12:11:52;100258.22;;;14.70;72.29
76378;BME280;65200;49.500;8.654;2023-11-21T12:14:20;100258.97;;;14.77;72.33
76378;BME280;65200;49.500;8.654;2023-11-21T12:16:46;100257.28;;;14.82;71.90
76378;BME280;65200;49.500;8.654;2023-11-21T12:19:14;100262.59;;;15.13;71.91
76378;BME280;65200;49.500;8.654;2023-11-21T12:21:41;100257.31;;;15.25;69.77
76378;BME280;65200;49.500;8.654;2023-11-21T12:24:09;100260.88;;;15.19;71.69
76378;BME280;65200;49.500;8.654;2023-11-21T12:26:38;100264.81;;;14.98;71.23
76378;BME280;65200;49.500;8.654;2023-11-21T12:29:05;100257.16;;;14.71;71.86
76378;BME280;65200;49.500;8.654;2023-11-21T12:31:33;100260.69;;;14.71;71.40
76378;BME280;65200;49.500;8.654;2023-11-21T12:34:00;100257.88;;;14.60;71.56
76378;BME280;65200;49.500;8.654;2023-11-21T12:36:28;100251.78;;;14.40;69.28
76378;BME280;65200;49.500;8.654;2023-11-21T12:38:55;100261.19;;;14.31;68.18
76378;BME280;65200;49.500;8.654;2023-11-21T12:41:22;100263.34;;;14.47;68.24
76378;BME280;65200;49.500;8.654;2023-11-21T12:43:48;100269.66;;;14.90;67.59
76378;BME280;65200;49.500;8.654;2023-11-21T12:46:15;100270.19;;;15.23;67.31
76378;BME280;65200;49.500;8.654;2023-11-21T12:48:43;100272.13;;;15.59;67.64
76378;BME280;65200;49.500;8.654;2023-11-21T12:51:11;100278.88;;;15.07;64.18
76378;BME280;65200;49.500;8.654;2023-11-21T12:53:41;100278.34;;;15.17;63.29
76378;BME280;65200;49.500;8.654;2023-11-21T12:56:10;100277.31;;;15.36;64.08
76378;BME280;65200;49.500;8.654;2023-11-21T12:58:37;100284.19;;;15.38;63.04